createdAt,value
2023-05-22T00:01:00.010Z,3.20
2023-05-22T00:02:00.909Z,3.80
2023-05-22T00:03:01.893Z,3.40
2023-05-22T00:04:02.322Z,3.80
2023-05-22T00:05:03.214Z,3.50
2023-05-22T00:06:04.095Z,3.90
2023-05-22T00:07:04.952Z,3.40
2023-05-22T00:08:05.832Z,3.10
2023-05-22T00:09:06.749Z,3.60
2023-05-22T00:10:07.611Z,3.10
2023-05-22T00:11:08.510Z,3.30
2023-05-22T00:12:09.389Z,2.90
2023-05-22T00:13:10.276Z,2.90
2023-05-22T00:14:11.166Z,2.60
2023-05-22T00:15:12.047Z,3.10
2023-05-22T00:16:12.968Z,3.10
2023-05-22T00:17:13.958Z,3.00
2023-05-22T00:18:14.475Z,3.00
2023-05-22T00:19:15.409Z,3.10
2023-05-22T00:20:16.238Z,3.20
2023-05-22T00:21:17.133Z,3.20
2023-05-22T00:22:18.027Z,2.90
2023-05-22T00:23:18.929Z,3.10
2023-05-22T00:24:19.867Z,3.30
2023-05-22T00:25:20.698Z,2.90
2023-05-22T00:26:21.598Z,3.10
2023-05-22T00:27:22.516Z,3.10
2023-05-22T00:28:23.410Z,2.90
2023-05-22T00:29:24.268Z,3.00
2023-05-22T00:30:25.158Z,3.10
2023-05-22T00:31:26.043Z,2.90
2023-05-22T00:32:26.945Z,3.10
2023-05-22T00:33:27.824Z,3.00
2023-05-22T00:34:28.733Z,3.10
2023-05-22T00:35:29.585Z,3.00
2023-05-22T00:36:30.465Z,2.90
2023-05-22T00:37:31.363Z,4.00
2023-05-22T00:38:32.283Z,3.10
2023-05-22T00:39:33.156Z,3.00
2023-05-22T00:40:34.000Z,3.30
2023-05-22T00:41:34.887Z,2.80
2023-05-22T00:42:35.786Z,3.00
2023-05-22T00:43:36.662Z,2.80
2023-05-22T00:44:37.540Z,2.90
2023-05-22T00:45:38.418Z,3.20
2023-05-22T00:46:39.326Z,3.20
2023-05-22T00:47:40.201Z,3.00
2023-05-22T00:48:41.069Z,2.90
2023-05-22T00:49:41.956Z,3.10
2023-05-22T00:50:42.860Z,2.80
2023-05-22T00:51:43.739Z,3.20
2023-05-22T00:52:44.609Z,3.20
2023-05-22T00:53:45.488Z,3.30
2023-05-22T00:54:46.388Z,3.00
2023-05-22T00:55:47.254Z,3.50
2023-05-22T00:56:48.145Z,3.30
2023-05-22T00:57:49.011Z,3.30
2023-05-22T00:58:49.888Z,3.40
2023-05-22T00:59:50.768Z,3.40
2023-05-22T01:00:51.657Z,3.50
2023-05-22T01:01:52.595Z,3.40
2023-05-22T01:02:53.497Z,3.30
2023-05-22T01:03:54.552Z,3.10
2023-05-22T01:04:54.947Z,2.90
2023-05-22T01:05:55.858Z,3.10
2023-05-22T01:06:56.716Z,3.50
2023-05-22T01:07:57.593Z,3.40
2023-05-22T01:08:58.466Z,3.20
2023-05-22T01:09:59.376Z,3.40
2023-05-22T01:11:00.258Z,3.30
2023-05-22T01:12:01.138Z,3.20
2023-05-22T01:13:02.005Z,3.40
2023-05-22T01:14:02.880Z,3.30
2023-05-22T01:15:03.761Z,3.40
2023-05-22T01:16:04.686Z,3.30
2023-05-22T01:17:05.558Z,3.40
2023-05-22T01:18:06.534Z,3.20
2023-05-22T01:19:07.425Z,3.70
2023-05-22T01:20:08.277Z,3.40
2023-05-22T01:21:09.155Z,3.10
2023-05-22T01:22:10.028Z,3.40
2023-05-22T01:23:10.894Z,3.50
2023-05-22T01:24:11.820Z,3.20
2023-05-22T01:25:12.705Z,3.60
2023-05-22T01:26:13.572Z,3.30
2023-05-22T01:27:14.442Z,3.30
2023-05-22T01:28:15.322Z,3.20
2023-05-22T01:29:16.201Z,3.40
2023-05-22T01:30:17.202Z,3.20
2023-05-22T01:31:18.046Z,3.40
2023-05-22T01:32:18.924Z,3.50
2023-05-22T01:33:19.939Z,3.20
2023-05-22T01:34:20.358Z,3.10
2023-05-22T01:35:21.221Z,3.20
2023-05-22T01:36:22.101Z,3.40
2023-05-22T01:37:22.984Z,3.10
2023-05-22T01:38:23.873Z,3.50
2023-05-22T01:39:24.757Z,3.70
2023-05-22T01:40:25.666Z,3.40
2023-05-22T01:41:26.173Z,3.10
2023-05-22T01:42:27.047Z,3.30
2023-05-22T01:43:27.936Z,3.00
2023-05-22T01:44:28.866Z,3.10
2023-05-22T01:45:29.740Z,3.30
2023-05-22T01:46:30.627Z,3.00
2023-05-22T01:47:31.542Z,3.20
2023-05-22T01:48:32.410Z,3.20
2023-05-22T01:49:33.283Z,3.10
2023-05-22T01:50:34.189Z,3.20
2023-05-22T01:51:35.057Z,3.20
2023-05-22T01:52:35.958Z,3.20
2023-05-22T01:53:36.856Z,3.10
2023-05-22T01:54:37.766Z,3.30
2023-05-22T01:55:38.684Z,3.30
2023-05-22T01:56:39.580Z,3.20
2023-05-22T01:57:40.442Z,3.00
2023-05-22T01:58:41.315Z,3.60
2023-05-22T01:59:42.203Z,3.30
2023-05-22T02:00:43.069Z,3.50
2023-05-22T02:01:44.071Z,3.30
2023-05-22T02:02:44.539Z,3.20
2023-05-22T02:03:45.469Z,3.10
2023-05-22T02:04:46.319Z,3.10
2023-05-22T02:05:47.199Z,2.90
2023-05-22T02:06:48.112Z,3.10
2023-05-22T02:07:48.970Z,3.30
2023-05-22T02:08:49.868Z,2.90
2023-05-22T02:09:50.758Z,2.50
2023-05-22T02:10:51.646Z,2.50
2023-05-22T02:11:52.507Z,2.40
2023-05-22T02:12:53.387Z,2.70
2023-05-22T02:13:54.270Z,2.70
2023-05-22T02:14:55.167Z,2.50
2023-05-22T02:15:56.065Z,2.70
2023-05-22T02:16:56.967Z,2.40
2023-05-22T02:17:57.928Z,2.90
2023-05-22T02:18:58.824Z,2.90
2023-05-22T02:19:59.657Z,2.80
2023-05-22T02:21:00.549Z,2.70
2023-05-22T02:22:01.426Z,3.10
2023-05-22T02:23:02.306Z,2.50
2023-05-22T02:24:03.205Z,2.60
2023-05-22T02:25:04.085Z,2.60
2023-05-22T02:26:05.023Z,2.40
2023-05-22T02:27:05.862Z,2.70
2023-05-22T02:28:06.750Z,2.50
2023-05-22T02:29:07.629Z,2.70
2023-05-22T02:30:08.512Z,2.80
2023-05-22T02:31:09.444Z,2.30
2023-05-22T02:32:10.287Z,2.40
2023-05-22T02:33:11.251Z,2.40
2023-05-22T02:34:12.123Z,2.20
2023-05-22T02:35:13.026Z,2.40
2023-05-22T02:36:13.914Z,2.60
2023-05-22T02:37:14.779Z,2.40
2023-05-22T02:38:15.668Z,2.40
2023-05-22T02:39:16.544Z,2.60
2023-05-22T02:40:17.425Z,2.70
2023-05-22T02:41:18.323Z,2.40
2023-05-22T02:42:19.174Z,2.40
2023-05-22T02:43:20.053Z,2.60
2023-05-22T02:44:20.943Z,2.60
2023-05-22T02:45:21.836Z,2.50
2023-05-22T02:46:22.760Z,2.50
2023-05-22T02:47:23.635Z,2.40
2023-05-22T02:48:24.537Z,2.50
2023-05-22T02:49:25.395Z,3.10
2023-05-22T02:50:26.284Z,3.00
2023-05-22T02:51:27.167Z,3.10
2023-05-22T02:52:28.030Z,3.10
2023-05-22T02:53:28.905Z,2.60
2023-05-22T02:54:29.806Z,2.60
2023-05-22T02:55:30.675Z,2.70
2023-05-22T02:56:31.678Z,2.60
2023-05-22T02:57:32.499Z,2.60
2023-05-22T02:58:33.376Z,2.40
2023-05-22T02:59:34.268Z,2.60
2023-05-22T03:00:35.147Z,2.70
2023-05-22T03:01:36.042Z,2.80
2023-05-22T03:02:37.064Z,2.70
2023-05-22T03:03:37.566Z,2.70
2023-05-22T03:04:38.498Z,2.90
2023-05-22T03:05:39.361Z,2.40
2023-05-22T03:06:40.232Z,2.70
2023-05-22T03:07:41.059Z,2.80
2023-05-22T03:08:41.937Z,2.70
2023-05-22T03:09:42.783Z,2.60
2023-05-22T03:10:43.603Z,2.70
2023-05-22T03:11:44.450Z,2.70
2023-05-22T03:12:45.292Z,2.70
2023-05-22T03:13:46.182Z,2.80
2023-05-22T03:14:47.022Z,2.70
2023-05-22T03:15:47.867Z,2.40
2023-05-22T03:16:48.775Z,2.50
2023-05-22T03:17:49.621Z,2.70
2023-05-22T03:18:50.412Z,2.70
2023-05-22T03:19:51.228Z,2.90
2023-05-22T03:20:52.049Z,3.10
2023-05-22T03:21:52.879Z,3.30
2023-05-22T03:22:53.704Z,2.90
2023-05-22T03:23:54.530Z,3.10
2023-05-22T03:24:55.360Z,2.70
2023-05-22T03:25:56.190Z,2.40
2023-05-22T03:26:57.044Z,2.50
2023-05-22T03:27:57.864Z,2.40
2023-05-22T03:28:58.761Z,2.50
2023-05-22T03:29:59.551Z,2.70
2023-05-22T03:31:00.375Z,2.50
2023-05-22T03:32:01.217Z,2.70
2023-05-22T03:33:02.112Z,2.70
2023-05-22T03:34:02.954Z,2.50
2023-05-22T03:35:03.802Z,2.50
2023-05-22T03:36:04.632Z,2.60
2023-05-22T03:37:05.467Z,2.70
2023-05-22T03:38:06.291Z,2.40
2023-05-22T03:39:07.127Z,2.80
2023-05-22T03:40:07.946Z,2.70
2023-05-22T03:41:08.804Z,2.70
2023-05-22T03:42:09.632Z,2.80
2023-05-22T03:43:10.426Z,2.80
2023-05-22T03:44:11.255Z,3.20
2023-05-22T03:45:12.084Z,4.50
2023-05-22T03:46:12.955Z,3.10
2023-05-22T03:47:13.779Z,4.10
2023-05-22T03:48:14.610Z,4.70
2023-05-22T03:49:15.432Z,4.50
2023-05-22T03:50:16.270Z,3.70
2023-05-22T03:51:19.970Z,2.90
2023-05-22T03:52:18.053Z,2.80
2023-05-22T03:53:18.880Z,3.20
2023-05-22T03:54:19.704Z,3.20
2023-05-22T03:55:20.546Z,2.90
2023-05-22T03:56:21.377Z,2.90
2023-05-22T03:57:22.230Z,2.80
2023-05-22T03:58:23.022Z,2.80
2023-05-22T03:59:23.850Z,3.10
2023-05-22T04:00:26.372Z,3.10
2023-05-22T04:01:25.330Z,3.30
2023-05-22T04:02:26.228Z,3.50
2023-05-22T04:03:27.247Z,3.10
2023-05-22T04:04:28.080Z,3.00
2023-05-22T04:05:29.023Z,3.10
2023-05-22T04:06:29.843Z,3.40
2023-05-22T04:07:30.661Z,3.10
2023-05-22T04:08:31.490Z,3.40
2023-05-22T04:09:32.309Z,3.70
2023-05-22T04:10:33.147Z,2.90
2023-05-22T04:11:33.968Z,3.10
2023-05-22T04:12:34.831Z,2.90
2023-05-22T04:13:35.617Z,3.00
2023-05-22T04:14:36.466Z,3.10
2023-05-22T04:15:37.299Z,3.00
2023-05-22T04:16:38.111Z,3.10
2023-05-22T04:17:38.948Z,2.80
2023-05-22T04:18:39.756Z,2.90
2023-05-22T04:19:40.580Z,3.20
2023-05-22T04:20:41.575Z,3.10
2023-05-22T04:21:42.023Z,2.80
2023-05-22T04:22:42.834Z,2.90
2023-05-22T04:23:43.664Z,2.90
2023-05-22T04:24:44.502Z,3.30
2023-05-22T04:25:45.325Z,3.10
2023-05-22T04:26:46.167Z,2.90
2023-05-22T04:27:47.014Z,3.20
2023-05-22T04:28:47.813Z,3.10
2023-05-22T04:29:48.641Z,3.40
2023-05-22T04:30:49.489Z,3.10
2023-05-22T04:31:50.303Z,3.20
2023-05-22T04:32:51.251Z,3.40
2023-05-22T04:33:52.056Z,3.30
2023-05-22T04:34:52.868Z,3.30
2023-05-22T04:35:53.695Z,3.10
2023-05-22T04:36:54.520Z,3.00
2023-05-22T04:37:55.348Z,3.20
2023-05-22T04:38:56.174Z,3.00
2023-05-22T04:39:57.004Z,2.80
2023-05-22T04:40:57.828Z,3.10
2023-05-22T04:41:58.666Z,3.20
2023-05-22T04:42:59.512Z,2.80
2023-05-22T04:44:00.317Z,3.20
2023-05-22T04:45:01.143Z,2.80
2023-05-22T04:46:01.971Z,3.00
2023-05-22T04:47:03.567Z,3.20
2023-05-22T04:48:03.566Z,3.00
2023-05-22T04:49:04.340Z,4.90
2023-05-22T04:50:05.166Z,4.10
2023-05-22T04:51:05.987Z,3.30
2023-05-22T04:52:06.830Z,3.50
2023-05-22T04:53:07.644Z,3.30
2023-05-22T04:54:08.476Z,3.70
2023-05-22T04:55:09.293Z,3.30
2023-05-22T04:56:10.432Z,3.40
2023-05-22T04:57:11.072Z,3.10
2023-05-22T04:58:11.932Z,3.20
2023-05-22T04:59:12.719Z,2.90
2023-05-22T05:00:13.549Z,3.20
2023-05-22T05:01:14.439Z,3.10
2023-05-22T05:02:15.240Z,2.90
2023-05-22T05:03:16.109Z,3.00
2023-05-22T05:04:16.939Z,2.70
2023-05-22T05:05:17.740Z,2.80
2023-05-22T05:06:18.573Z,3.00
2023-05-22T05:07:19.404Z,2.80
2023-05-22T05:08:20.246Z,2.60
2023-05-22T05:09:21.066Z,2.60
2023-05-22T05:10:21.891Z,2.70
2023-05-22T05:11:22.728Z,3.10
2023-05-22T05:12:23.552Z,2.90
2023-05-22T05:13:24.401Z,2.80
2023-05-22T05:14:25.208Z,2.90
2023-05-22T05:15:26.027Z,2.80
2023-05-22T05:16:26.935Z,2.80
2023-05-22T05:17:27.802Z,2.60
2023-05-22T05:18:28.584Z,2.70
2023-05-22T05:19:29.483Z,3.00
2023-05-22T05:20:30.275Z,2.50
2023-05-22T05:21:31.106Z,2.50
2023-05-22T05:22:31.927Z,2.60
2023-05-22T05:23:32.836Z,2.70
2023-05-22T05:24:33.674Z,2.60
2023-05-22T05:25:34.489Z,2.60
2023-05-22T05:26:35.328Z,2.80
2023-05-22T05:27:36.141Z,2.40
2023-05-22T05:28:36.986Z,2.80
2023-05-22T05:29:37.794Z,3.00
2023-05-22T05:30:38.870Z,2.80
2023-05-22T05:31:39.351Z,2.40
2023-05-22T05:32:40.188Z,3.10
2023-05-22T05:33:41.043Z,2.60
2023-05-22T05:34:41.872Z,2.60
2023-05-22T05:35:43.233Z,2.60
2023-05-22T05:36:43.566Z,2.60
2023-05-22T05:37:44.382Z,2.70
2023-05-22T05:38:45.224Z,2.80
2023-05-22T05:39:46.051Z,2.90
2023-05-22T05:40:46.894Z,2.70
2023-05-22T05:41:47.702Z,2.50
2023-05-22T05:42:48.526Z,3.30
2023-05-22T05:43:49.369Z,2.90
2023-05-22T05:44:50.186Z,2.90
2023-05-22T05:45:51.020Z,2.90
2023-05-22T05:46:51.847Z,2.50
2023-05-22T05:47:52.732Z,2.40
2023-05-22T05:48:53.513Z,2.30
2023-05-22T05:49:54.349Z,2.60
2023-05-22T05:50:55.176Z,2.70
2023-05-22T05:51:55.997Z,2.40
2023-05-22T05:52:56.825Z,2.70
2023-05-22T05:53:57.650Z,2.50
2023-05-22T05:54:58.485Z,2.50
2023-05-22T05:55:59.308Z,2.60
2023-05-22T05:57:00.165Z,2.40
2023-05-22T05:58:00.957Z,2.60
2023-05-22T05:59:01.875Z,2.60
2023-05-22T06:00:02.654Z,2.30
2023-05-22T06:01:03.470Z,2.40
2023-05-22T06:02:04.282Z,2.60
2023-05-22T06:03:05.225Z,2.70
2023-05-22T06:04:06.083Z,2.60
2023-05-22T06:05:06.928Z,2.60
2023-05-22T06:06:07.726Z,2.50
2023-05-22T06:07:08.576Z,2.40
2023-05-22T06:08:09.412Z,2.50
2023-05-22T06:09:10.349Z,2.50
2023-05-22T06:10:11.219Z,2.40
2023-05-22T06:11:12.051Z,2.50
2023-05-22T06:12:13.025Z,2.20
2023-05-22T06:13:13.837Z,2.60
2023-05-22T06:14:14.675Z,2.20
2023-05-22T06:15:15.485Z,2.70
2023-05-22T06:16:16.333Z,2.40
2023-05-22T06:17:17.144Z,2.30
2023-05-22T06:18:17.974Z,2.20
2023-05-22T06:19:18.833Z,2.20
2023-05-22T06:20:19.625Z,2.50
2023-05-22T06:21:20.474Z,2.70
2023-05-22T06:22:21.304Z,2.60
2023-05-22T06:23:22.132Z,2.60
2023-05-22T06:24:22.948Z,2.30
2023-05-22T06:25:23.801Z,2.50
2023-05-22T06:26:24.589Z,2.20
2023-05-22T06:27:25.427Z,2.30
2023-05-22T06:28:26.286Z,2.70
2023-05-22T06:29:27.096Z,2.40
2023-05-22T06:30:39.062Z,2.50
2023-05-22T06:31:29.617Z,2.40
2023-05-22T06:32:29.516Z,2.10
2023-05-22T06:33:30.403Z,2.40
2023-05-22T06:34:31.368Z,2.30
2023-05-22T06:35:32.174Z,2.40
2023-05-22T06:36:33.010Z,2.30
2023-05-22T06:37:33.849Z,2.30
2023-05-22T06:38:34.663Z,2.70
2023-05-22T06:39:35.484Z,2.50
2023-05-22T06:40:36.367Z,2.20
2023-05-22T06:41:37.156Z,2.40
2023-05-22T06:42:37.996Z,2.30
2023-05-22T06:43:38.848Z,2.70
2023-05-22T06:44:39.671Z,2.50
2023-05-22T06:45:40.521Z,2.30
2023-05-22T06:46:41.386Z,2.30
2023-05-22T06:47:42.250Z,2.50
2023-05-22T06:48:43.029Z,2.50
2023-05-22T06:49:43.859Z,2.30
2023-05-22T06:50:44.697Z,2.60
2023-05-22T06:51:45.521Z,2.40
2023-05-22T06:52:46.375Z,2.40
2023-05-22T06:53:47.176Z,2.40
2023-05-22T06:54:48.017Z,2.60
2023-05-22T06:55:48.847Z,2.60
2023-05-22T06:56:49.661Z,2.40
2023-05-22T06:57:50.499Z,2.50
2023-05-22T06:58:51.330Z,2.50
2023-05-22T06:59:52.312Z,2.20
2023-05-22T07:00:53.102Z,2.50
2023-05-22T07:01:53.927Z,2.50
2023-05-22T07:02:54.812Z,2.50
2023-05-22T07:03:55.583Z,2.20
2023-05-22T07:04:56.426Z,2.20
2023-05-22T07:05:57.279Z,2.10
2023-05-22T07:06:58.192Z,2.10
2023-05-22T07:07:59.005Z,2.30
2023-05-22T07:08:59.847Z,2.40
2023-05-22T07:10:00.686Z,2.40
2023-05-22T07:11:01.495Z,2.50
2023-05-22T07:12:02.318Z,2.60
2023-05-22T07:13:03.131Z,2.40
2023-05-22T07:14:03.970Z,2.30
2023-05-22T07:15:04.838Z,2.50
2023-05-22T07:16:05.678Z,2.50
2023-05-22T07:17:06.483Z,2.60
2023-05-22T07:18:07.360Z,2.20
2023-05-22T07:19:08.188Z,2.40
2023-05-22T07:20:09.000Z,2.30
2023-05-22T07:21:09.816Z,2.20
2023-05-22T07:22:10.649Z,2.20
2023-05-22T07:23:11.478Z,2.20
2023-05-22T07:24:12.318Z,2.20
2023-05-22T07:25:13.146Z,2.50
2023-05-22T07:26:13.968Z,2.40
2023-05-22T07:27:14.808Z,2.50
2023-05-22T07:28:15.648Z,2.20
2023-05-22T07:29:16.487Z,2.30
2023-05-22T07:30:17.332Z,2.10
2023-05-22T07:31:18.158Z,2.70
2023-05-22T07:32:18.957Z,2.10
2023-05-22T07:33:19.801Z,2.20
2023-05-22T07:34:20.614Z,2.00
2023-05-22T07:35:21.478Z,2.10
2023-05-22T07:36:22.282Z,2.30
2023-05-22T07:37:23.189Z,2.00
2023-05-22T07:38:24.019Z,2.20
2023-05-22T07:39:24.845Z,2.30
2023-05-22T07:40:26.577Z,2.10
2023-05-22T07:41:26.223Z,1.90
2023-05-22T07:42:27.049Z,2.20
2023-05-22T07:43:27.904Z,2.10
2023-05-22T07:44:28.718Z,2.20
2023-05-22T07:45:29.700Z,2.20
2023-05-22T07:46:30.509Z,2.10
2023-05-22T07:47:31.374Z,2.10
2023-05-22T07:48:32.170Z,2.00
2023-05-22T07:49:32.992Z,2.10
2023-05-22T07:50:33.817Z,2.00
2023-05-22T07:51:34.645Z,2.30
2023-05-22T07:52:35.491Z,2.00
2023-05-22T07:53:36.316Z,1.90
2023-05-22T07:54:37.142Z,2.00
2023-05-22T07:55:38.082Z,2.00
2023-05-22T07:56:38.909Z,2.10
2023-05-22T07:57:39.749Z,2.10
2023-05-22T07:58:40.583Z,2.20
2023-05-22T07:59:41.408Z,1.90
2023-05-22T08:00:42.672Z,2.10
2023-05-22T08:01:42.988Z,2.10
2023-05-22T08:02:44.061Z,1.80
2023-05-22T08:03:44.654Z,2.20
2023-05-22T08:04:45.064Z,2.00
2023-05-22T08:05:46.216Z,1.90
2023-05-22T08:06:46.654Z,1.90
2023-05-22T08:07:47.483Z,2.00
2023-05-22T08:08:48.313Z,1.80
2023-05-22T08:09:49.143Z,2.20
2023-05-22T08:11:50.689Z,2.00
2023-05-22T08:12:51.525Z,1.80
2023-05-22T08:13:52.345Z,2.10
2023-05-22T08:14:53.155Z,1.90
2023-05-22T08:16:00.591Z,1.80
2023-05-22T08:16:55.776Z,1.60
2023-05-22T08:17:55.614Z,1.90
2023-05-22T08:18:56.428Z,2.00
2023-05-22T08:19:57.367Z,1.90
2023-05-22T08:20:58.238Z,2.10
2023-05-22T08:21:59.063Z,1.80
2023-05-22T08:22:59.917Z,2.10
2023-05-22T08:24:00.710Z,1.90
2023-05-22T08:25:01.533Z,1.90
2023-05-22T08:26:02.398Z,1.90
2023-05-22T08:27:03.229Z,2.00
2023-05-22T08:28:04.077Z,2.00
2023-05-22T08:29:04.879Z,1.80
2023-05-22T08:30:05.711Z,2.20
2023-05-22T08:31:06.755Z,1.80
2023-05-22T08:32:07.651Z,2.00
2023-05-22T08:33:08.493Z,2.00
2023-05-22T08:34:09.404Z,1.90
2023-05-22T08:35:10.241Z,2.10
2023-05-22T08:36:11.079Z,2.00
2023-05-22T08:37:11.890Z,2.00
2023-05-22T08:38:12.709Z,2.00
2023-05-22T08:39:13.533Z,1.80
2023-05-22T08:40:14.366Z,1.90
2023-05-22T08:41:15.190Z,1.70
2023-05-22T08:42:16.011Z,2.00
2023-05-22T08:43:16.843Z,2.00
2023-05-22T08:44:17.664Z,2.00
2023-05-22T08:45:18.507Z,2.00
2023-05-22T08:46:19.763Z,1.80
2023-05-22T08:47:20.059Z,2.10
2023-05-22T08:48:20.863Z,1.80
2023-05-22T08:49:21.850Z,1.90
2023-05-22T08:50:22.277Z,1.90
2023-05-22T08:51:23.105Z,2.00
2023-05-22T08:52:23.944Z,1.80
2023-05-22T08:53:24.748Z,1.80
2023-05-22T08:54:25.584Z,1.80
2023-05-22T08:55:26.402Z,2.20
2023-05-22T08:56:29.300Z,2.00
2023-05-22T08:57:27.949Z,1.90
2023-05-22T08:58:28.791Z,1.80
2023-05-22T08:59:29.610Z,2.10
2023-05-22T09:00:30.440Z,2.20
2023-05-22T09:01:31.526Z,1.90
2023-05-22T09:02:31.830Z,1.90
2023-05-22T09:03:32.696Z,2.00
2023-05-22T09:04:33.133Z,2.00
2023-05-22T09:05:33.956Z,1.90
2023-05-22T09:06:34.777Z,1.90
2023-05-22T09:07:35.630Z,2.10
2023-05-22T09:08:36.452Z,1.90
2023-05-22T09:09:37.260Z,2.00
2023-05-22T09:10:38.533Z,2.10
2023-05-22T09:11:38.935Z,1.90
2023-05-22T09:12:39.762Z,2.10
2023-05-22T09:13:40.625Z,2.10
2023-05-22T09:14:41.454Z,2.00
2023-05-22T09:15:42.268Z,1.90
2023-05-22T09:16:43.200Z,1.90
2023-05-22T09:17:44.073Z,2.10
2023-05-22T09:18:44.996Z,2.00
2023-05-22T09:19:45.822Z,2.10
2023-05-22T09:20:46.615Z,1.90
2023-05-22T09:21:47.686Z,2.20
2023-05-22T09:22:48.419Z,2.30
2023-05-22T09:23:49.237Z,2.10
2023-05-22T09:24:50.066Z,2.10
2023-05-22T09:25:50.896Z,1.90
2023-05-22T09:26:51.733Z,1.90
2023-05-22T09:27:52.563Z,1.90
2023-05-22T09:28:53.425Z,2.10
2023-05-22T09:29:54.274Z,1.90
2023-05-22T09:30:55.134Z,2.10
2023-05-22T09:31:56.138Z,1.90
2023-05-22T09:32:56.985Z,2.40
2023-05-22T09:33:57.760Z,1.90
2023-05-22T09:34:58.581Z,2.00
2023-05-22T09:35:59.408Z,1.90
2023-05-22T09:37:00.250Z,2.00
2023-05-22T09:38:01.079Z,2.20
2023-05-22T09:39:01.940Z,2.30
2023-05-22T09:40:02.742Z,2.20
2023-05-22T09:41:03.596Z,2.00
2023-05-22T09:42:04.455Z,2.10
2023-05-22T09:43:05.271Z,1.90
2023-05-22T09:44:06.095Z,2.00
2023-05-22T09:45:06.922Z,2.30
2023-05-22T09:46:07.811Z,2.10
2023-05-22T09:47:08.709Z,2.20
2023-05-22T09:48:09.474Z,1.90
2023-05-22T09:49:11.948Z,2.20
2023-05-22T09:50:11.153Z,2.00
2023-05-22T09:51:11.984Z,2.10
2023-05-22T09:52:12.891Z,2.10
2023-05-22T09:53:13.722Z,2.10
2023-05-22T09:54:14.540Z,2.20
2023-05-22T09:55:15.388Z,2.10
2023-05-22T09:56:23.993Z,2.20
2023-05-22T09:57:17.936Z,2.10
2023-05-22T09:58:17.758Z,2.00
2023-05-22T09:59:18.587Z,1.90
2023-05-22T10:00:19.419Z,2.00
2023-05-22T10:01:20.279Z,2.10
2023-05-22T10:02:21.145Z,2.10
2023-05-22T10:03:21.920Z,2.20
2023-05-22T10:04:22.804Z,2.00
2023-05-22T10:05:23.608Z,1.90
2023-05-22T10:06:24.435Z,2.20
2023-05-22T10:07:25.262Z,2.20
2023-05-22T10:08:26.110Z,2.00
2023-05-22T10:09:26.943Z,2.00
2023-05-22T10:10:27.793Z,1.90
2023-05-22T10:11:28.623Z,2.00
2023-05-22T10:12:29.454Z,2.20
2023-05-22T10:13:30.357Z,2.00
2023-05-22T10:14:31.148Z,2.10
2023-05-22T10:15:31.950Z,1.80
2023-05-22T10:16:32.890Z,1.90
2023-05-22T10:17:33.855Z,2.20
2023-05-22T10:18:34.636Z,1.90
2023-05-22T10:19:37.091Z,1.80
2023-05-22T10:20:36.182Z,2.20
2023-05-22T10:21:37.107Z,2.00
2023-05-22T10:22:37.930Z,2.20
2023-05-22T10:23:38.758Z,2.10
2023-05-22T10:24:39.596Z,2.20
2023-05-22T10:25:40.421Z,2.10
2023-05-22T10:26:41.250Z,2.00
2023-05-22T10:27:42.085Z,2.10
2023-05-22T10:28:42.932Z,2.10
2023-05-22T10:29:43.731Z,2.00
2023-05-22T10:30:44.565Z,2.20
2023-05-22T10:31:45.393Z,1.90
2023-05-22T10:32:46.393Z,2.00
2023-05-22T10:33:47.243Z,2.10
2023-05-22T10:34:48.181Z,2.20
2023-05-22T10:35:48.994Z,2.20
2023-05-22T10:36:49.821Z,1.90
2023-05-22T10:37:50.653Z,2.10
2023-05-22T10:38:51.520Z,2.10
2023-05-22T10:39:52.336Z,2.30
2023-05-22T10:40:53.170Z,2.20
2023-05-22T10:41:53.992Z,2.00
2023-05-22T10:42:54.823Z,2.20
2023-05-22T10:43:55.698Z,2.30
2023-05-22T10:44:56.521Z,2.20
2023-05-22T10:45:57.357Z,2.00
2023-05-22T10:46:58.183Z,2.20
2023-05-22T10:47:59.183Z,2.20
2023-05-22T10:48:59.956Z,2.10
2023-05-22T10:50:00.783Z,2.10
2023-05-22T10:51:01.661Z,2.20
2023-05-22T10:52:02.506Z,2.30
2023-05-22T10:53:03.312Z,2.30
2023-05-22T10:54:04.140Z,2.10
2023-05-22T10:55:04.965Z,2.20
2023-05-22T10:56:05.793Z,2.30
2023-05-22T10:57:06.629Z,1.90
2023-05-22T10:58:07.450Z,2.00
2023-05-22T10:59:08.554Z,2.10
2023-05-22T11:00:08.884Z,2.30
2023-05-22T11:01:09.710Z,2.50
2023-05-22T11:02:11.560Z,2.20
2023-05-22T11:03:17.647Z,2.10
2023-05-22T11:04:13.235Z,2.00
2023-05-22T11:05:13.109Z,2.30
2023-05-22T11:06:13.950Z,2.30
2023-05-22T11:07:14.764Z,2.10
2023-05-22T11:08:16.729Z,2.30
2023-05-22T11:09:16.437Z,2.20
2023-05-22T11:10:17.262Z,2.10
2023-05-22T11:11:18.091Z,2.40
2023-05-22T11:12:18.929Z,2.20
2023-05-22T11:13:19.740Z,2.40
2023-05-22T11:14:20.571Z,2.20
2023-05-22T11:15:21.400Z,2.00
2023-05-22T11:16:22.277Z,2.20
2023-05-22T11:17:23.050Z,2.00
2023-05-22T11:18:24.011Z,2.20
2023-05-22T11:19:24.832Z,2.00
2023-05-22T11:20:25.663Z,2.30
2023-05-22T11:21:26.486Z,2.20
2023-05-22T11:22:27.313Z,2.50
2023-05-22T11:23:28.138Z,2.30
2023-05-22T11:24:28.955Z,2.20
2023-05-22T11:25:29.797Z,2.30
2023-05-22T11:26:30.622Z,2.10
2023-05-22T11:27:31.585Z,2.20
2023-05-22T11:28:32.411Z,2.30
2023-05-22T11:29:33.240Z,2.20
2023-05-22T11:30:34.070Z,2.30
2023-05-22T11:31:34.969Z,2.30
2023-05-22T11:32:35.905Z,2.30
2023-05-22T11:33:36.739Z,2.10
2023-05-22T11:34:37.560Z,2.30
2023-05-22T11:35:38.374Z,2.10
2023-05-22T11:36:39.203Z,2.30
2023-05-22T11:37:40.032Z,2.40
2023-05-22T11:38:40.865Z,2.20
2023-05-22T11:39:41.694Z,2.30
2023-05-22T11:40:42.727Z,2.30
2023-05-22T11:41:43.108Z,2.00
2023-05-22T11:42:43.934Z,2.30
2023-05-22T11:43:44.772Z,2.10
2023-05-22T11:44:45.603Z,2.50
2023-05-22T11:45:46.426Z,2.30
2023-05-22T11:46:47.282Z,2.30
2023-05-22T11:47:48.114Z,2.40
2023-05-22T11:48:49.057Z,2.30
2023-05-22T11:49:49.834Z,2.30
2023-05-22T11:50:50.651Z,2.70
2023-05-22T11:51:51.484Z,2.50
2023-05-22T11:52:52.312Z,2.30
2023-05-22T11:53:53.181Z,2.70
2023-05-22T11:54:53.975Z,2.40
2023-05-22T11:55:54.807Z,2.50
2023-05-22T11:56:55.627Z,2.30
2023-05-22T11:57:56.511Z,2.60
2023-05-22T11:58:57.337Z,2.40
2023-05-22T11:59:58.200Z,2.20
2023-05-22T12:00:58.993Z,2.30
2023-05-22T12:01:59.816Z,2.30
2023-05-22T12:03:00.771Z,2.10
2023-05-22T12:04:01.843Z,2.50
2023-05-22T12:05:02.184Z,2.40
2023-05-22T12:06:03.062Z,2.20
2023-05-22T12:07:03.892Z,2.50
2023-05-22T12:08:04.720Z,2.60
2023-05-22T12:09:05.547Z,2.30
2023-05-22T12:10:06.391Z,2.40
2023-05-22T12:11:07.210Z,2.30
2023-05-22T12:12:08.045Z,2.40
2023-05-22T12:13:08.875Z,2.40
2023-05-22T12:14:09.718Z,2.40
2023-05-22T12:15:10.530Z,2.70
2023-05-22T12:16:11.415Z,2.30
2023-05-22T12:17:12.236Z,2.30
2023-05-22T12:18:13.104Z,2.50
2023-05-22T12:19:14.130Z,2.30
2023-05-22T12:20:14.434Z,2.30
2023-05-22T12:21:15.242Z,2.40
2023-05-22T12:22:16.085Z,2.40
2023-05-22T12:23:16.917Z,2.40
2023-05-22T12:24:17.744Z,2.50
2023-05-22T12:25:18.286Z,2.50
2023-05-22T12:26:19.089Z,2.40
2023-05-22T12:27:19.936Z,2.60
2023-05-22T12:28:20.734Z,2.60
2023-05-22T12:29:21.567Z,2.40
2023-05-22T12:30:22.399Z,3.30
2023-05-22T12:31:23.231Z,2.60
2023-05-22T12:32:24.187Z,2.60
2023-05-22T12:33:25.003Z,2.30
2023-05-22T12:34:26.047Z,2.20
2023-05-22T12:35:26.334Z,2.40
2023-05-22T12:36:27.167Z,2.30
2023-05-22T12:37:28.016Z,2.50
2023-05-22T12:38:28.817Z,2.40
2023-05-22T12:39:29.636Z,2.20
2023-05-22T12:40:30.464Z,2.30
2023-05-22T12:41:31.289Z,2.40
2023-05-22T12:42:32.118Z,2.50
2023-05-22T12:43:32.953Z,2.30
2023-05-22T12:44:33.765Z,2.30
2023-05-22T12:45:34.603Z,2.30
2023-05-22T12:46:35.435Z,2.30
2023-05-22T12:47:36.269Z,2.10
2023-05-22T12:48:37.075Z,2.40
2023-05-22T12:49:38.038Z,2.30
2023-05-22T12:50:38.993Z,2.30
2023-05-22T12:51:39.372Z,2.30
2023-05-22T12:52:40.200Z,2.40
2023-05-22T12:53:41.043Z,2.30
2023-05-22T12:54:41.853Z,2.20
2023-05-22T12:55:42.687Z,2.30
2023-05-22T12:56:43.508Z,2.30
2023-05-22T12:57:44.340Z,2.30
2023-05-22T12:58:45.173Z,2.10
2023-05-22T12:59:46.002Z,2.30
2023-05-22T13:00:46.827Z,2.30
2023-05-22T13:01:47.676Z,2.50
2023-05-22T13:02:48.545Z,2.30
2023-05-22T13:03:49.446Z,2.40
2023-05-22T13:04:50.472Z,2.20
2023-05-22T13:05:50.784Z,2.20
2023-05-22T13:06:51.603Z,2.30
2023-05-22T13:07:52.416Z,2.10
2023-05-22T13:08:53.242Z,2.20
2023-05-22T13:09:54.094Z,2.10
2023-05-22T13:10:54.897Z,2.20
2023-05-22T13:11:55.807Z,2.10
2023-05-22T13:12:56.615Z,2.20
2023-05-22T13:13:57.464Z,2.30
2023-05-22T13:14:58.288Z,2.00
2023-05-22T13:15:59.156Z,2.30
2023-05-22T13:16:59.954Z,2.50
2023-05-22T13:18:00.885Z,2.10
2023-05-22T13:19:01.689Z,2.30
2023-05-22T13:20:02.638Z,2.40
2023-05-22T13:21:03.395Z,2.10
2023-05-22T13:22:04.222Z,2.30
2023-05-22T13:23:05.057Z,2.20
2023-05-22T13:24:05.869Z,2.40
2023-05-22T13:25:06.699Z,2.20
2023-05-22T13:26:07.543Z,2.40
2023-05-22T13:27:08.380Z,2.30
2023-05-22T13:28:09.207Z,2.30
2023-05-22T13:29:10.034Z,2.30
2023-05-22T13:30:10.960Z,2.20
2023-05-22T13:31:11.737Z,2.40